Time;durP1;ratioP1;P1;durP2;ratioP2;P2;SDS_P1;SDS_P2;PMS_P1;PMS_P2;Temp;Humidity;BMP_temperature;BMP_pressure;BME280_temperature;BME280_humidity;BME280_pressure;Samples;Min_cycle;Max_cycle;Signal;HPM_P1;HPM_P2
2023/09/21 01:20:03;;;;;;;;;;;;;;;;;;;;;
2023/09/21 01:21:22;;;;;;;;;;;;;;;17.04;70.70;98843.72;1088571;54;1446;-81
2023/09/21 03:21:34;;;;;;;;;;;;;;;16.35;74.24;98730.09;1088019;54;1430;-83
2023/09/21 03:22:34;;;;;;;;;;;;;;;16.38;74.96;98740.47;1088738;54;971;-82
2023/09/21 03:23:39;;;;;;;;;;;;;;;16.40;74.61;98743.75;1088744;54;892;-84
2023/09/21 03:24:40;;;;;;;;;;;;;;;16.46;74.00;98742.06;1088485;54;867;-82
2023/09/21 03:25:45;;;;;;;;;;;;;;;16.47;74.65;98738.31;1088412;47;914;-82
2023/09/21 03:26:47;;;;;;;;;;;;;;;16.46;74.71;98736.66;1088437;47;956;-82
2023/09/21 03:27:48;;;;;;;;;;;;;;;16.42;74.97;98744.38;1088623;47;942;-83
2023/09/21 03:28:54;;;;;;;;;;;;;;;16.37;74.78;98742.31;1088707;47;1848;-84
2023/09/21 03:30:01;;;;;;;;;;;;;;;16.25;75.10;98744.00;1088604;47;953;-84
2023/09/21 03:31:04;;;;;;;;;;;;;;;16.19;75.92;98748.41;1088392;54;1315;-81
2023/09/21 03:32:06;;;;;;;;;;;;;;;16.21;75.15;98740.91;1088406;54;1146;-84
2023/09/21 03:33:12;;;;;;;;;;;;;;;16.11;76.12;98739.72;1088666;47;990;-82
2023/09/21 04:22:17;;;;;;;;;;;;;;;16.43;73.78;98723.63;1087842;54;1604;-81
2023/09/21 04:23:18;;;;;;;;;;;;;;;16.48;73.46;98721.09;1087856;47;943;-82
2023/09/21 04:24:24;;;;;;;;;;;;;;;16.52;73.28;98720.47;1088051;47;1142;-82
2023/09/21 04:25:25;;;;;;;;;;;;;;;16.55;73.17;98719.19;1088028;54;1050;-82
2023/09/21 04:26:29;;;;;;;;;;;;;;;16.48;73.31;98716.53;1088216;54;1042;-82
2023/09/21 04:27:31;;;;;;;;;;;;;;;16.45;73.73;98721.53;1088198;54;1153;-80
2023/09/21 04:28:32;;;;;;;;;;;;;;;16.47;73.57;98714.06;1088207;47;1857;-80
2023/09/21 04:29:35;;;;;;;;;;;;;;;16.50;73.40;98719.03;1088150;46;1070;-81
2023/09/21 04:30:36;;;;;;;;;;;;;;;16.49;74.00;98714.66;1088251;54;1390;-82
2023/09/21 04:31:39;;;;;;;;;;;;;;;16.41;73.94;98723.00;1088332;54;884;-81
2023/09/21 04:32:40;;;;;;;;;;;;;;;16.42;73.98;98717.41;1088076;54;1078;-81
2023/09/21 04:33:45;;;;;;;;;;;;;;;16.42;73.87;98720.09;1088223;54;1098;-81
2023/09/21 04:34:45;;;;;;;;;;;;;;;16.49;73.72;98725.47;1088245;54;1031;-81
2023/09/21 04:35:49;;;;;;;;;;;;;;;16.51;73.34;98726.91;1088511;54;1116;-82
2023/09/21 04:36:52;;;;;;;;;;;;;;;16.54;73.64;98728.31;1088565;54;977;-82
2023/09/21 04:37:58;;;;;;;;;;;;;;;16.55;73.66;98724.59;1088474;54;1047;-82
2023/09/21 04:39:00;;;;;;;;;;;;;;;16.51;74.25;98731.47;1088268;46;1054;-83
2023/09/21 04:40:03;;;;;;;;;;;;;;;16.51;74.19;98728.78;1088404;46;984;-82
2023/09/21 04:41:07;;;;;;;;;;;;;;;16.53;73.92;98727.50;1088197;54;1347;-81
2023/09/21 04:42:13;;;;;;;;;;;;;;;16.58;73.63;98728.75;1088089;47;964;-82
2023/09/21 04:43:17;;;;;;;;;;;;;;;16.59;73.71;98731.22;1088338;54;1024;-81
2023/09/21 04:44:18;;;;;;;;;;;;;;;16.63;73.51;98729.72;1088387;54;1536;-80
2023/09/21 04:45:18;;;;;;;;;;;;;;;16.65;73.68;98734.94;1088305;54;1367;-81
2023/09/21 04:46:22;;;;;;;;;;;;;;;16.64;73.60;98738.66;1088118;46;1114;-82
2023/09/21 04:47:24;;;;;;;;;;;;;;;16.63;73.53;98740.50;1088020;46;1099;-82
2023/09/21 04:48:27;;;;;;;;;;;;;;;16.66;73.67;98737.41;1088166;54;1856;-82
2023/09/21 04:49:28;;;;;;;;;;;;;;;16.68;73.56;98731.78;1087606;47;1043;-82
2023/09/21 04:50:33;;;;;;;;;;;;;;;16.61;74.15;98722.91;1087934;47;1455;-80
2023/09/21 04:51:34;;;;;;;;;;;;;;;16.54;74.83;98728.31;1087594;54;1305;-81
2023/09/21 04:52:38;;;;;;;;;;;;;;;16.54;74.30;98720.22;1087856;54;1023;-81
2023/09/21 04:53:42;;;;;;;;;;;;;;;16.50;75.44;98719.03;1087560;54;1027;-80
2023/09/21 04:54:51;;;;;;;;;;;;;;;16.45;75.21;98719.66;1087962;54;1116;-81
2023/09/21 04:55:55;;;;;;;;;;;;;;;16.43;75.46;98720.94;1087975;46;1012;-81
2023/09/21 04:56:58;;;;;;;;;;;;;;;16.35;75.94;98716.59;1087808;47;971;-82
2023/09/21 04:57:59;;;;;;;;;;;;;;;16.33;76.24;98716.00;1087708;47;1014;-80
2023/09/21 04:59:03;;;;;;;;;;;;;;;16.31;76.25;98716.22;1088054;47;991;-81
2023/09/21 05:00:07;;;;;;;;;;;;;;;16.26;76.50;98721.41;1088139;54;956;-81
2023/09/21 05:01:12;;;;;;;;;;;;;;;16.31;76.41;98724.31;1088198;54;1306;-81
2023/09/21 05:02:13;;;;;;;;;;;;;;;16.34;76.51;98718.47;1088032;54;1090;-82
2023/09/21 05:03:16;;;;;;;;;;;;;;;16.38;76.33;98716.19;1088195;54;964;-82
2023/09/21 05:04:17;;;;;;;;;;;;;;;16.36;76.63;98711.00;1088064;54;1016;-81
2023/09/21 05:05:20;;;;;;;;;;;;;;;16.38;76.32;98708.91;1088141;54;954;-83
2023/09/21 05:06:21;;;;;;;;;;;;;;;16.42;76.27;98708.50;1088091;54;1429;-83
2023/09/21 05:07:25;;;;;;;;;;;;;;;16.36;77.36;98704.78;1088118;54;1181;-82
2023/09/21 05:08:25;;;;;;;;;;;;;;;16.29;77.07;98704.81;1088120;54;1067;-82
2023/09/21 05:09:32;;;;;;;;;;;;;;;16.27;77.61;98701.50;1087974;47;1845;-83
2023/09/21 05:10:33;;;;;;;;;;;;;;;16.24;77.75;98695.72;1088187;47;991;-82
2023/09/21 05:11:38;;;;;;;;;;;;;;;16.15;77.77;98704.03;1087907;47;1266;-81
2023/09/21 05:12:51;;;;;;;;;;;;;;;16.11;78.20;98700.09;1088080;54;974;-82
2023/09/21 05:13:55;;;;;;;;;;;;;;;16.15;79.05;98690.56;1087895;47;960;-80
2023/09/21 05:14:57;;;;;;;;;;;;;;;16.12;78.25;98693.69;1088013;54;948;-83
2023/09/21 05:16:00;;;;;;;;;;;;;;;16.21;78.31;98694.28;1088100;47;964;-82
2023/09/21 05:17:02;;;;;;;;;;;;;;;16.30;77.71;98693.00;1088045;47;972;-81
2023/09/21 05:18:07;;;;;;;;;;;;;;;16.31;77.68;98689.25;1088055;54;1039;-83
2023/09/21 05:19:09;;;;;;;;;;;;;;;16.24;77.89;98684.94;1087986;47;964;-83
2023/09/21 05:20:13;;;;;;;;;;;;;;;16.18;78.27;98692.84;1088154;54;1031;-82
2023/09/21 05:21:14;;;;;;;;;;;;;;;16.22;78.50;98690.53;1088113;46;1348;-82
2023/09/21 05:22:18;;;;;;;;;;;;;;;16.32;77.98;98695.47;1087931;47;1008;-82
2023/09/21 05:23:19;;;;;;;;;;;;;;;16.36;77.65;98702.91;1088002;54;1110;-83
2023/09/21 05:24:19;;;;;;;;;;;;;;;16.43;77.74;98692.09;1087973;54;1075;-83
2023/09/21 05:25:34;;;;;;;;;;;;;;;16.45;76.74;98703.50;1087754;47;929;-82
2023/09/21 05:26:41;;;;;;;;;;;;;;;16.45;76.39;98697.25;1087964;47;1516;-81
2023/09/21 05:27:45;;;;;;;;;;;;;;;16.47;76.76;98700.56;1087932;54;1040;-81
2023/09/21 05:28:46;;;;;;;;;;;;;;;16.55;76.47;98694.09;1087854;54;1873;-82
2023/09/21 05:29:52;;;;;;;;;;;;;;;16.59;76.22;98698.84;1087731;47;1042;-83
2023/09/21 05:30:54;;;;;;;;;;;;;;;16.63;76.19;98697.34;1087891;54;1320;-82
2023/09/21 05:31:57;;;;;;;;;;;;;;;16.65;77.29;98700.66;1088164;47;992;-82
2023/09/21 05:33:00;;;;;;;;;;;;;;;16.68;77.25;98697.53;1088164;54;1063;-83
2023/09/21 05:34:02;;;;;;;;;;;;;;;16.74;76.69;98690.44;1088033;54;1108;-80
2023/09/21 05:35:06;;;;;;;;;;;;;;;16.79;76.38;98689.78;1087975;54;971;-81
2023/09/21 05:36:07;;;;;;;;;;;;;;;16.82;76.10;98686.63;1087856;54;1067;-81
2023/09/21 05:37:11;;;;;;;;;;;;;;;16.85;75.93;98697.00;1087928;54;1038;-81
2023/09/21 05:38:12;;;;;;;;;;;;;;;16.88;75.74;98693.88;1088306;54;1106;-80
2023/09/21 05:39:17;;;;;;;;;;;;;;;16.92;75.78;98695.06;1088041;54;1086;-81
2023/09/21 05:40:23;;;;;;;;;;;;;;;16.91;75.71;98698.81;1088417;47;1063;-82
2023/09/21 05:41:41;;;;;;;;;;;;;;;16.86;76.06;98701.34;1088437;47;1248;-82
2023/09/21 05:42:56;;;;;;;;;;;;;;;16.90;76.39;98701.75;1088574;54;1098;-81
2023/09/21 05:44:00;;;;;;;;;;;;;;;16.93;76.93;98702.16;1088123;47;1006;-81
2023/09/21 05:45:01;;;;;;;;;;;;;;;16.88;77.54;98701.13;1088309;46;960;-83
2023/09/21 05:46:04;;;;;;;;;;;;;;;16.88;77.19;98701.97;1088174;47;986;-81
2023/09/21 05:47:05;;;;;;;;;;;;;;;16.91;76.85;98701.53;1088364;54;1070;-82
2023/09/21 05:48:15;;;;;;;;;;;;;;;16.90;76.75;98707.16;1088317;54;949;-81
2023/09/21 05:49:22;;;;;;;;;;;;;;;16.92;76.76;98705.06;1088263;47;1879;-80
2023/09/21 05:50:27;;;;;;;;;;;;;;;16.95;76.55;98708.19;1088272;54;1110;-82
2023/09/21 05:51:28;;;;;;;;;;;;;;;16.90;76.75;98701.75;1088005;47;1270;-81
2023/09/21 05:52:34;;;;;;;;;;;;;;;16.93;76.58;98698.63;1087665;54;1122;-81
2023/09/21 05:53:35;;;;;;;;;;;;;;;16.95;76.65;98702.78;1088021;54;1373;-82
2023/09/21 05:54:40;;;;;;;;;;;;;;;16.99;76.26;98698.59;1088063;54;1070;-81
2023/09/21 05:55:41;;;;;;;;;;;;;;;17.00;76.95;98694.03;1087977;54;1606;-81
2023/09/21 05:56:47;;;;;;;;;;;;;;;16.96;76.98;98687.41;1087986;54;1146;-82
2023/09/21 05:57:48;;;;;;;;;;;;;;;16.87;76.94;98692.22;1087938;47;1413;-81
2023/09/21 05:58:52;;;;;;;;;;;;;;;16.80;76.84;98686.88;1087985;47;1094;-81
2023/09/21 05:59:52;;;;;;;;;;;;;;;16.73;77.04;98687.94;1088038;54;1458;-82
2023/09/21 06:00:59;;;;;;;;;;;;;;;16.77;76.86;98691.88;1087985;54;1394;-82
2023/09/21 06:02:02;;;;;;;;;;;;;;;16.63;77.21;98688.44;1088050;54;937;-82
2023/09/21 06:03:06;;;;;;;;;;;;;;;16.63;77.60;98685.75;1088011;54;1028;-81
2023/09/21 06:04:07;;;;;;;;;;;;;;;16.66;77.82;98680.75;1087948;54;1387;-82
2023/09/21 06:05:11;;;;;;;;;;;;;;;16.73;77.41;98682.56;1087972;47;1039;-81
2023/09/21 06:06:14;;;;;;;;;;;;;;;16.71;77.97;98684.66;1087954;54;1004;-81
2023/09/21 06:07:20;;;;;;;;;;;;;;;16.62;78.80;98682.22;1087913;54;1041;-81
2023/09/21 06:08:24;;;;;;;;;;;;;;;16.51;78.61;98680.22;1087463;46;1126;-81
2023/09/21 06:09:25;;;;;;;;;;;;;;;16.53;78.75;98676.25;1086946;54;1846;-81
2023/09/21 06:10:30;;;;;;;;;;;;;;;16.46;79.41;98677.34;1086722;47;1159;-80
2023/09/21 06:11:31;;;;;;;;;;;;;;;16.46;79.21;98678.19;1087453;54;1336;-81
2023/09/21 06:12:37;;;;;;;;;;;;;;;16.56;78.97;98671.47;1087754;47;1326;-82
2023/09/21 06:13:38;;;;;;;;;;;;;;;16.62;78.86;98676.84;1088007;47;991;-81
2023/09/21 06:14:43;;;;;;;;;;;;;;;16.67;79.06;98668.91;1088160;54;1084;-81
2023/09/21 06:15:48;;;;;;;;;;;;;;;16.72;79.09;98670.94;1087923;46;1004;-80
2023/09/21 06:16:52;;;;;;;;;;;;;;;16.72;79.81;98664.75;1087838;47;1359;-80
2023/09/21 06:17:53;;;;;;;;;;;;;;;16.73;79.12;98666.38;1088074;54;1356;-81
2023/09/21 06:18:56;;;;;;;;;;;;;;;16.72;80.34;98664.75;1088003;54;1469;-80
2023/09/21 06:19:57;;;;;;;;;;;;;;;16.72;79.72;98664.75;1087987;47;1066;-81
2023/09/21 06:21:02;;;;;;;;;;;;;;;16.75;78.41;98672.38;1088015;54;1386;-80
2023/09/21 06:22:02;;;;;;;;;;;;;;;16.80;79.46;98667.16;1087912;54;956;-83
2023/09/21 06:23:07;;;;;;;;;;;;;;;16.68;78.90;98658.94;1087204;54;1244;-81
2023/09/21 06:24:10;;;;;;;;;;;;;;;16.51;79.55;98658.66;1087904;47;1015;-82
2023/09/21 06:25:13;;;;;;;;;;;;;;;16.54;79.21;98666.28;1088070;54;1110;-81
2023/09/21 06:26:14;;;;;;;;;;;;;;;16.64;79.09;98677.44;1088011;47;1055;-83
2023/09/21 06:27:19;;;;;;;;;;;;;;;16.63;79.33;98680.34;1088047;54;1447;-81
2023/09/21 06:28:24;;;;;;;;;;;;;;;16.63;79.76;98688.44;1087789;46;1315;-80
2023/09/21 06:29:27;;;;;;;;;;;;;;;16.63;79.81;98678.47;1087937;46;1847;-82
2023/09/21 06:30:28;;;;;;;;;;;;;;;16.71;79.17;98673.88;1087891;47;1007;-80
2023/09/21 06:31:32;;;;;;;;;;;;;;;16.73;79.94;98671.75;1087778;54;1408;-81
2023/09/21 06:32:35;;;;;;;;;;;;;;;16.68;80.97;98670.56;1088082;54;1066;-80
2023/09/21 06:33:40;;;;;;;;;;;;;;;16.69;81.07;98669.53;1087998;54;1055;-81
2023/09/21 06:34:41;;;;;;;;;;;;;;;16.67;80.19;98673.50;1088127;54;1048;-81
2023/09/21 06:35:47;;;;;;;;;;;;;;;16.67;79.74;98666.22;1088181;54;1028;-81
2023/09/21 06:36:49;;;;;;;;;;;;;;;16.72;79.47;98667.44;1087846;54;1114;-81
2023/09/21 06:37:54;;;;;;;;;;;;;;;16.76;78.90;98668.63;1087910;47;1001;-80
2023/09/21 06:38:56;;;;;;;;;;;;;;;16.77;79.10;98670.28;1087798;47;941;-82
2023/09/21 06:40:00;;;;;;;;;;;;;;;16.82;78.80;98673.16;1088094;54;949;-81
2023/09/21 06:41:01;;;;;;;;;;;;;;;16.87;78.64;98670.63;1087988;54;1391;-81
2023/09/21 06:42:05;;;;;;;;;;;;;;;16.84;78.14;98671.91;1088001;54;1620;-81
2023/09/21 06:43:07;;;;;;;;;;;;;;;16.87;78.43;98667.94;1087772;47;1051;-81
2023/09/21 06:44:13;;;;;;;;;;;;;;;16.90;78.52;98667.50;1088066;54;1376;-82
2023/09/21 06:45:14;;;;;;;;;;;;;;;16.95;77.72;98665.00;1087856;54;1323;-81
2023/09/21 06:46:15;;;;;;;;;;;;;;;17.00;77.70;98672.44;1088042;54;1161;-81
2023/09/21 06:47:21;;;;;;;;;;;;;;;17.00;77.81;98669.72;1087950;47;1131;-83
2023/09/21 06:48:22;;;;;;;;;;;;;;;17.03;77.95;98679.25;1087908;54;893;-82
2023/09/21 06:49:23;;;;;;;;;;;;;;;17.00;78.06;98680.53;1087929;54;1860;-81
2023/09/21 06:50:27;;;;;;;;;;;;;;;16.91;78.37;98690.72;1087761;54;940;-80
2023/09/21 06:51:28;;;;;;;;;;;;;;;16.82;78.61;98687.47;1087820;47;1335;-80
2023/09/21 06:52:31;;;;;;;;;;;;;;;16.89;78.50;98684.75;1088248;54;1457;-82
2023/09/21 06:53:32;;;;;;;;;;;;;;;16.96;78.41;98682.84;1088455;54;986;-81
2023/09/21 06:54:38;;;;;;;;;;;;;;;16.96;78.48;98677.44;1088385;54;977;-82
2023/09/21 06:55:39;;;;;;;;;;;;;;;17.00;78.35;98683.22;1088248;54;958;-81
2023/09/21 06:56:40;;;;;;;;;;;;;;;17.03;77.97;98681.94;1088253;54;1040;-82
2023/09/21 06:59:17;;;;;;;;;;;;;;;17.05;78.03;98675.28;1088147;47;944;-82
2023/09/21 07:00:17;;;;;;;;;;;;;;;17.05;79.17;98674.47;1088003;47;1244;-83
2023/09/21 07:01:21;;;;;;;;;;;;;;;17.04;78.92;98678.22;1087942;47;1187;-82
2023/09/21 07:02:22;;;;;;;;;;;;;;;17.08;78.61;98674.03;1088086;46;1126;-81
2023/09/21 07:03:25;;;;;;;;;;;;;;;17.10;78.64;98671.91;1088043;54;1031;-82
2023/09/21 07:04:31;;;;;;;;;;;;;;;17.07;79.26;98680.47;1088085;47;958;-82
2023/09/21 07:05:34;;;;;;;;;;;;;;;17.02;79.77;98677.59;1088071;54;1350;-82
2023/09/21 07:06:35;;;;;;;;;;;;;;;16.91;79.13;98679.94;1088111;54;998;-82
2023/09/21 07:07:41;;;;;;;;;;;;;;;16.92;79.14;98684.28;1088054;54;1111;-81
2023/09/21 07:08:44;;;;;;;;;;;;;;;16.96;78.42;98693.63;1087997;54;886;-82
2023/09/21 07:09:47;;;;;;;;;;;;;;;16.98;78.99;98698.81;1088123;54;1857;-81
2023/09/21 07:10:49;;;;;;;;;;;;;;;16.88;79.62;98699.28;1087789;54;1427;-80
2023/09/21 07:11:50;;;;;;;;;;;;;;;16.87;79.53;98696.78;1087910;47;873;-81
2023/09/21 07:12:53;;;;;;;;;;;;;;;16.95;79.56;98693.88;1088085;54;1181;-81
2023/09/21 07:13:56;;;;;;;;;;;;;;;17.03;79.26;98687.34;1088095;47;1492;-81
2023/09/21 07:15:02;;;;;;;;;;;;;;;17.07;79.59;98685.88;1088080;54;941;-82
2023/09/21 07:16:03;;;;;;;;;;;;;;;17.07;79.13;98693.97;1088054;47;1491;-81
2023/09/21 07:17:07;;;;;;;;;;;;;;;17.08;78.92;98695.63;1088027;54;965;-81
2023/09/21 07:18:09;;;;;;;;;;;;;;;17.14;78.45;98692.03;1088174;54;994;-82
2023/09/21 07:19:14;;;;;;;;;;;;;;;17.15;79.17;98686.41;1088143;54;1004;-82
2023/09/21 07:20:22;;;;;;;;;;;;;;;16.99;80.15;98681.56;1088134;54;900;-82
2023/09/21 07:21:26;;;;;;;;;;;;;;;16.94;79.25;98682.22;1088105;47;1364;-82
2023/09/21 07:24:00;;;;;;;;;;;;;;;16.86;79.26;98681.66;1087451;47;1183;-81
2023/09/21 07:25:03;;;;;;;;;;;;;;;16.88;80.11;98674.16;1088221;54;1094;-82
2023/09/21 07:26:08;;;;;;;;;;;;;;;16.81;80.32;98674.22;1088321;47;912;-82
2023/09/21 07:27:08;;;;;;;;;;;;;;;16.86;80.27;98670.88;1088155;54;1020;-81
2023/09/21 07:28:12;;;;;;;;;;;;;;;16.80;80.75;98667.16;1088155;47;1142;-81
2023/09/21 07:29:13;;;;;;;;;;;;;;;16.75;81.23;98669.69;1088214;54;1018;-82
2023/09/21 07:30:28;;;;;;;;;;;;;;;16.78;81.25;98663.84;1088371;54;1860;-82
2023/09/21 07:31:59;;;;;;;;;;;;;;;16.87;80.96;98673.34;1088265;47;1263;-82
2023/09/21 07:33:03;;;;;;;;;;;;;;;16.87;80.42;98662.53;1088089;47;988;-81
2023/09/21 07:34:06;;;;;;;;;;;;;;;16.90;79.99;98662.09;1088209;54;1068;-82
2023/09/21 07:35:14;;;;;;;;;;;;;;;16.91;79.62;98660.22;1087936;47;940;-81
2023/09/21 07:36:14;;;;;;;;;;;;;;;16.87;80.10;98653.59;1088064;54;983;-83
2023/09/21 07:37:18;;;;;;;;;;;;;;;16.78;80.31;98658.47;1088050;54;936;-81
2023/09/21 07:38:21;;;;;;;;;;;;;;;16.86;80.51;98654.66;1088031;54;1379;-82
2023/09/21 07:39:25;;;;;;;;;;;;;;;16.91;80.33;98655.63;1087991;47;1016;-82
2023/09/21 07:40:27;;;;;;;;;;;;;;;16.99;79.69;98655.41;1087980;47;1019;-82
2023/09/21 07:41:30;;;;;;;;;;;;;;;16.96;79.58;98658.56;1087880;47;1278;-81
2023/09/21 07:42:33;;;;;;;;;;;;;;;17.04;79.54;98652.06;1087767;54;1014;-81
2023/09/21 07:43:37;;;;;;;;;;;;;;;17.16;79.10;98649.44;1087947;47;1098;-81
2023/09/21 07:44:44;;;;;;;;;;;;;;;17.17;79.28;98651.09;1087978;54;1005;-82
2023/09/21 07:45:53;;;;;;;;;;;;;;;17.19;78.92;98646.31;1087543;54;975;-81
2023/09/21 07:46:56;;;;;;;;;;;;;;;17.27;79.14;98635.22;1088107;54;1002;-83
2023/09/21 07:48:00;;;;;;;;;;;;;;;17.21;78.06;98637.97;1088144;54;1086;-83
2023/09/21 07:49:04;;;;;;;;;;;;;;;17.17;78.11;98634.06;1088001;47;1349;-82
2023/09/21 07:50:08;;;;;;;;;;;;;;;17.21;78.42;98628.00;1088059;54;1858;-83
2023/09/21 07:51:09;;;;;;;;;;;;;;;17.27;78.35;98623.59;1087870;47;1300;-83
2023/09/21 07:52:14;;;;;;;;;;;;;;;17.33;79.09;98627.28;1087784;54;1101;-80
2023/09/21 07:53:15;;;;;;;;;;;;;;;17.35;78.87;98614.38;1087677;54;1082;-80
2023/09/21 07:54:19;;;;;;;;;;;;;;;17.34;78.68;98613.53;1087200;47;1023;-80
2023/09/21 07:55:20;;;;;;;;;;;;;;;17.33;77.98;98617.31;1088124;54;1054;-82
2023/09/21 07:56:23;;;;;;;;;;;;;;;17.37;78.42;98613.09;1087800;54;1212;-82
2023/09/21 07:57:31;;;;;;;;;;;;;;;17.50;77.87;98622.91;1087913;46;1039;-81
2023/09/21 07:58:36;;;;;;;;;;;;;;;17.58;78.05;98625.31;1087593;54;1051;-81
2023/09/21 07:59:37;;;;;;;;;;;;;;;17.64;77.95;98614.69;1087864;47;976;-81
2023/09/21 08:00:47;;;;;;;;;;;;;;;17.66;77.70;98618.78;1087981;54;1364;-81
2023/09/21 08:01:53;;;;;;;;;;;;;;;17.59;77.39;98618.88;1087881;47;1347;-80
2023/09/21 08:02:56;;;;;;;;;;;;;;;17.66;76.85;98615.28;1088088;54;1372;-82
2023/09/21 08:03:57;;;;;;;;;;;;;;;17.75;76.44;98619.34;1088086;54;990;-81
2023/09/21 08:04:58;;;;;;;;;;;;;;;17.76;75.92;98615.53;1088120;54;1131;-82
2023/09/21 08:06:01;;;;;;;;;;;;;;;17.86;76.09;98613.13;1088324;54;1098;-82
2023/09/21 08:07:05;;;;;;;;;;;;;;;17.97;75.91;98613.47;1087991;54;1126;-82
2023/09/21 08:08:08;;;;;;;;;;;;;;;18.06;76.00;98617.50;1088350;54;1532;-82
2023/09/21 08:09:09;;;;;;;;;;;;;;;18.14;75.44;98611.75;1088255;47;988;-81
2023/09/21 08:10:13;;;;;;;;;;;;;;;18.20;75.12;98608.16;1088120;47;1877;-82
2023/09/21 08:11:14;;;;;;;;;;;;;;;18.28;75.12;98617.00;1088209;54;1403;-80
2023/09/21 08:12:21;;;;;;;;;;;;;;;18.30;74.63;98609.47;1087957;47;1042;-82
2023/09/21 08:13:24;;;;;;;;;;;;;;;18.39;74.53;98603.50;1088028;54;992;-81
2023/09/21 08:14:29;;;;;;;;;;;;;;;18.45;74.62;98600.94;1088391;54;1035;-81
2023/09/21 08:15:30;;;;;;;;;;;;;;;18.47;74.30;98610.47;1088364;47;1403;-81
2023/09/21 08:16:35;;;;;;;;;;;;;;;18.52;74.30;98602.47;1088060;54;1156;-81
2023/09/21 08:17:38;;;;;;;;;;;;;;;18.62;73.73;98607.34;1088255;46;950;-82
2023/09/21 08:18:42;;;;;;;;;;;;;;;18.58;73.05;98606.13;1088368;47;963;-82
2023/09/21 08:19:44;;;;;;;;;;;;;;;18.63;73.39;98610.84;1088154;47;1476;-82
2023/09/21 08:20:48;;;;;;;;;;;;;;;18.69;73.31;98604.53;1088294;54;1478;-82
2023/09/21 08:21:49;;;;;;;;;;;;;;;18.79;73.22;98599.38;1088351;54;1222;-81
2023/09/21 08:22:50;;;;;;;;;;;;;;;18.89;72.39;98597.97;1088304;54;1015;-81
2023/09/21 08:23:53;;;;;;;;;;;;;;;18.94;72.31;98595.38;1088350;54;1386;-81
2023/09/21 08:24:54;;;;;;;;;;;;;;;19.08;72.15;98593.25;1087329;47;1139;-80
2023/09/21 08:25:59;;;;;;;;;;;;;;;19.20;71.85;98590.53;1088334;47;1019;-80
2023/09/21 08:27:01;;;;;;;;;;;;;;;19.35;71.49;98585.47;1088265;47;1012;-81
2023/09/21 08:28:05;;;;;;;;;;;;;;;19.45;71.33;98577.56;1088394;47;989;-83
2023/09/21 08:29:14;;;;;;;;;;;;;;;19.62;70.67;98576.81;1088384;47;1093;-83
2023/09/21 08:30:17;;;;;;;;;;;;;;;19.73;70.33;98581.41;1088345;46;1861;-82
2023/09/21 08:31:19;;;;;;;;;;;;;;;19.78;69.68;98575.25;1088167;54;1321;-82
2023/09/21 08:32:30;;;;;;;;;;;;;;;19.80;69.58;98565.81;1088235;47;1111;-82
2023/09/21 08:33:34;;;;;;;;;;;;;;;19.77;69.05;98577.13;1088280;54;1236;-81
2023/09/21 08:34:38;;;;;;;;;;;;;;;19.83;68.73;98575.34;1088547;54;1027;-84
2023/09/21 08:35:40;;;;;;;;;;;;;;;19.85;68.87;98572.38;1088463;47;983;-83
2023/09/21 08:36:44;;;;;;;;;;;;;;;19.98;69.34;98569.41;1088424;54;1126;-81
2023/09/21 08:37:45;;;;;;;;;;;;;;;20.14;69.32;98575.94;1088396;54;1094;-81
2023/09/21 08:38:46;;;;;;;;;;;;;;;20.30;68.42;98577.06;1088055;54;1035;-82
2023/09/21 08:39:49;;;;;;;;;;;;;;;20.38;67.64;98578.53;1088103;54;1112;-81
2023/09/21 08:40:52;;;;;;;;;;;;;;;20.40;67.82;98574.50;1088319;54;1467;-83
2023/09/21 08:41:55;;;;;;;;;;;;;;;20.51;68.04;98577.38;1088317;54;1402;-81
2023/09/21 08:42:59;;;;;;;;;;;;;;;20.50;68.21;98581.19;1088352;47;1138;-82
2023/09/21 08:44:05;;;;;;;;;;;;;;;20.57;67.71;98573.69;1088357;54;1108;-80
2023/09/21 08:45:08;;;;;;;;;;;;;;;20.66;67.42;98577.66;1088535;47;980;-81
2023/09/21 08:46:11;;;;;;;;;;;;;;;20.70;67.35;98573.34;1088296;54;1426;-80
2023/09/21 08:47:13;;;;;;;;;;;;;;;20.76;67.13;98574.28;1088113;47;1140;-81
2023/09/21 08:48:18;;;;;;;;;;;;;;;20.76;67.21;98578.91;1088327;54;1158;-81
2023/09/21 08:49:22;;;;;;;;;;;;;;;20.81;67.08;98584.41;1088283;54;1369;-81
2023/09/21 08:50:26;;;;;;;;;;;;;;;20.84;66.35;98581.22;1088347;54;1924;-80
2023/09/21 08:51:27;;;;;;;;;;;;;;;20.84;66.20;98581.22;1088234;54;1400;-81
2023/09/21 08:52:31;;;;;;;;;;;;;;;20.88;66.33;98582.34;1088260;54;1086;-82
2023/09/21 08:53:32;;;;;;;;;;;;;;;20.96;66.25;98583.81;1088188;47;1142;-82
2023/09/21 08:54:40;;;;;;;;;;;;;;;21.04;65.88;98580.69;1088115;47;1007;-82
2023/09/21 08:55:43;;;;;;;;;;;;;;;21.10;65.55;98578.88;1088118;47;979;-83
2023/09/21 08:56:53;;;;;;;;;;;;;;;21.19;65.45;98582.81;1088120;54;1038;-83
2023/09/21 08:57:57;;;;;;;;;;;;;;;21.26;64.40;98580.72;1088056;54;1169;-83
2023/09/21 08:59:04;;;;;;;;;;;;;;;21.26;63.90;98582.63;1087717;47;1193;-79
2023/09/21 09:00:09;;;;;;;;;;;;;;;21.33;63.71;98578.66;1087705;54;1403;-82
2023/09/21 09:01:25;;;;;;;;;;;;;;;21.23;63.75;98581.25;1087808;46;1412;-81
2023/09/21 09:02:28;;;;;;;;;;;;;;;21.25;64.09;98581.81;1087842;54;1094;-81
2023/09/21 09:03:33;;;;;;;;;;;;;;;21.30;64.37;98581.88;1088017;54;1103;-84
2023/09/21 09:04:43;;;;;;;;;;;;;;;21.47;64.10;98594.59;1087910;54;1370;-82
2023/09/21 09:05:46;;;;;;;;;;;;;;;21.64;63.89;98591.84;1088004;54;1061;-82
2023/09/21 09:06:47;;;;;;;;;;;;;;;21.49;63.14;98587.81;1087460;47;991;-79
2023/09/21 09:07:51;;;;;;;;;;;;;;;21.64;63.10;98589.13;1087705;54;1039;-81
2023/09/21 09:08:51;;;;;;;;;;;;;;;21.69;62.80;98582.94;1087728;54;1079;-79
2023/09/21 09:09:54;;;;;;;;;;;;;;;21.53;62.83;98582.72;1087831;54;983;-81
2023/09/21 09:10:55;;;;;;;;;;;;;;;21.50;63.31;98585.94;1087883;47;1854;-82
2023/09/21 09:12:00;;;;;;;;;;;;;;;21.60;63.03;98588.81;1088144;46;928;-83
2023/09/21 09:13:05;;;;;;;;;;;;;;;21.66;62.81;98576.94;1087951;54;1166;-81
2023/09/21 09:14:13;;;;;;;;;;;;;;;21.68;62.43;98581.28;1087901;54;1122;-81
2023/09/21 09:15:14;;;;;;;;;;;;;;;21.70;62.94;98581.88;1087917;47;1404;-83
2023/09/21 09:16:30;;;;;;;;;;;;;;;21.66;63.06;98582.38;1088032;54;1050;-83
2023/09/21 09:17:31;;;;;;;;;;;;;;;21.60;63.25;98569.78;1087822;54;1117;-80
2023/09/21 09:18:35;;;;;;;;;;;;;;;21.53;63.47;98563.69;1088126;54;1150;-82
2023/09/21 09:19:35;;;;;;;;;;;;;;;;;;1087957;54;1356;-81
2023/09/21 09:25:31;;;;;;;;;;;;;;;21.23;63.87;98547.81;1087622;54;1957;-81
2023/09/21 09:26:36;;;;;;;;;;;;;;;21.08;64.49;98549.25;1088055;46;1011;-81
2023/09/21 09:27:41;;;;;;;;;;;;;;;20.97;64.57;98540.13;1088156;54;1098;-82
2023/09/21 09:28:42;;;;;;;;;;;;;;;21.00;64.38;98547.78;1088242;54;1055;-82
2023/09/21 09:30:00;;;;;;;;;;;;;;;21.01;64.61;98543.19;1088058;47;1062;-82
2023/09/21 09:31:06;;;;;;;;;;;;;;;20.97;64.57;98540.13;1088009;54;1851;-82
2023/09/21 09:32:12;;;;;;;;;;;;;;;20.87;65.03;98531.84;1088109;54;1102;-82
2023/09/21 09:33:15;;;;;;;;;;;;;;;20.86;64.92;98532.91;1087939;47;1086;-81
2023/09/21 09:34:22;;;;;;;;;;;;;;;20.96;64.49;98529.50;1088251;54;1030;-82
2023/09/21 09:36:52;;;;;;;;;;;;;;;21.16;64.05;98531.69;1088228;54;1105;-82
2023/09/21 09:37:53;;;;;;;;;;;;;;;21.22;63.96;98522.53;1088210;54;1026;-83
2023/09/21 09:38:56;;;;;;;;;;;;;;;21.14;63.63;98522.97;1088229;46;1085;-81
2023/09/21 09:39:57;;;;;;;;;;;;;;;21.08;63.30;98516.66;1088211;54;1350;-81
2023/09/21 09:41:06;;;;;;;;;;;;;;;21.18;63.80;98515.94;1088124;54;1348;-82
2023/09/21 09:42:07;;;;;;;;;;;;;;;21.11;63.54;98518.03;1088340;54;1066;-81
2023/09/21 09:43:14;;;;;;;;;;;;;;;21.23;63.27;98518.75;1088296;54;1224;-82
2023/09/21 09:44:18;;;;;;;;;;;;;;;21.37;63.16;98511.03;1088271;54;1358;-82
2023/09/21 09:45:24;;;;;;;;;;;;;;;21.41;62.61;98511.34;1087718;46;1040;-79
2023/09/21 09:46:30;;;;;;;;;;;;;;;21.38;62.88;98509.13;1087780;47;991;-79
2023/09/21 09:47:41;;;;;;;;;;;;;;;21.44;63.20;98510.84;1087425;47;996;-81
2023/09/21 09:48:43;;;;;;;;;;;;;;;21.53;62.81;98506.63;1087932;54;1078;-82
2023/09/21 09:50:11;;;;;;;;;;;;;;;21.66;62.32;98503.50;1088191;54;1107;-83
2023/09/21 09:51:13;;;;;;;;;;;;;;;21.80;62.04;98501.22;1087857;47;1845;-81
2023/09/21 09:52:20;;;;;;;;;;;;;;;21.93;61.83;98501.88;1088019;54;1093;-83
2023/09/21 09:53:24;;;;;;;;;;;;;;;22.00;62.01;98499.78;1088209;54;1073;-83
2023/09/21 09:54:29;;;;;;;;;;;;;;;22.11;61.42;98501.50;1088221;54;1030;-82